Durango, CO

11:18 PM MDT on August 22, 2014 (GMT -0600)
Pagosa Springs | Change Station
CLOSE
Current Station
Airport
Location: Pagosa Springs,
Elevation: 7657 ft
Nearby Weather Stations

Elev 7657 ft 37.29 °N, 107.06 °W | Updated 3 minutes ago

Thunderstorm
Thunderstorm
51 °F
Feels Like 51 °F
N
0
Wind Variable Wind from North
Gusts 8 mph

Today
High -- | Low -- °F
--% Chance of Precip.
Yesterday
High -- | Low -- °F
Precip. -- in
6:33 AM 7:54 PM
Waning Crescent, 5% visible
Pressure 30.27 in
Visibility 10.0 miles
Clouds
Dew Point 49 °F
Humidity 91%
Rainfall 0.00 in
Snow Depth 1 in , 0 in , 0 in
UV Not available.
Pollen 7.40 out of 12
Air Quality Not available.
Flu Activity Not available.
METAR KPSO 230515Z AUTO 00000KT 10SM 11/09 A3027 RMK AO2 T01060092

More Conditions Fewer Conditions

Pressure 30.27 in
Visibility 10.0 miles
Clouds
Dew Point 49 °F
Humidity 91%
Rainfall 0.00 in
Snow Depth 1 in , 0 in , 0 in
UV Not available.
Pollen 7.40 out of 12
Air Quality Not available.
Flu Activity Not available.
METAR KPSO 230515Z AUTO 00000KT 10SM 11/09 A3027 RMK AO2 T01060092

More Conditions Fewer Conditions

10-Day Weather Forecast

Almanac

Astronomy

Aug. 22, 2014 Rise Set
Actual Time 6:33 AM MDT 7:54 PM MDT
Civil Twilight 6:06 AM MDT 8:21 PM MDT
Nautical Twilight 5:33 AM MDT 8:53 PM MDT
Astronomical Twilight 4:59 AM MDT 9:27 PM MDT
Moon 4:00 AM MDT (8/22) 6:03 PM MDT (8/22)
Length of Visible Light 14h 15m
Length of Day
13h 20m
Tomorrow will be 2m 13s shorter.
Waning Crescent, 5% of the Moon is Illuminated
Aug 23
Waning Crescent
Aug 25
New
Sep 2
First Quarter
Sep 8
Full
Sep 15
Last Quarter

Yesterday's Extremes

State Highs State Lows

Community

WunderPhotos

Upload Photos

1,746,370 photos uploaded!

WunderBlogs® & News

By Dr. Jeff Masters
Director of Meteorology, Weather Underground
By Kari Strenfel
Meteorologist, Weather Underground
By Christopher C. Burt
Weather Historian, Weather Underground
August 23, 2014
August 23, 2014
August 22, 2014

Nearby

Snow Depth

Station Depth Elevation
Columbus Basin 1 in 10785 ft
Sharkstooth 0 in 10720 ft
Mancos 0 in 10000 ft
Vallecito 1 in 10880 ft
Cascade 0 in 8880 ft

Earthquake Activity

City Distance Mag. Time & Date
No recent earthquake activity has been reported nearby.
Minimum magnitude displayed is 2.5.

Coastal Water Temperatures

Place Temperature
No Stations Reporting

Nearby Weather Stations